• Join FlightAware (Why Join?)
  • Login
  • US Flag 
05:01PM EDT


 

Airport Tracker/Info


-or-


 

Live Flight TrackerFlight Track Log ✈ EJA820 ✈ 30-Apr-2013 ✈ KATL - KHPN

Flight Track Log - Related Links

Times and Time Zones

All times are in EDT time to prevent confusion due to time zone crossing. See the EJA820 flight status page for this flight to view local times or setup timezone preferences in your user account.

Time Position Orientation Groundspeed Altitude Reporting Facility
EDT Latitude Longitude Course Direction KTS MPH feet Rate Location/Type
02:17PM 33.6667 -84.3000 76° East 267 307 5,400  Level Atlanta TRACON
02:18PM 33.6833 -84.2000 79° East 283 326 9,700 2,160 Climbing Atlanta TRACON
02:19PM 33.6833 -84.1000 90° East 324 373 10,000 120 Climbing Atlanta TRACON
02:20PM 33.6794 -83.9889 92° East 324 373 10,000 480 Level Atlanta Center
02:21PM 33.6753 -83.8817 93° East 324 373 11,100 1,680 Climbing Atlanta Center
02:22PM 34.0597 -83.8962 46° Northeast  Level FlightAware Approximate
02:22PM 33.6686 -83.7692 94° East 332 382 13,400  Level Atlanta Center
02:23PM 33.6622 -83.6569 94° East 332 382 15,800 2,160 Climbing Atlanta Center
02:24PM 33.6972 -83.5519 68° East 332 382 17,800 1,860 Climbing Atlanta Center
02:25PM 33.7406 -83.4467 64° Northeast 337 388 19,600 1,800 Climbing Atlanta Center
02:26PM 33.7839 -83.3389 64° Northeast 337 388 21,500 1,920 Climbing Atlanta Center
02:27PM 33.8250 -83.2311 65° Northeast 343 395 23,500 1,860 Climbing Atlanta Center
02:28PM 33.8700 -83.1231 63° Northeast 348 400 25,300 1,500 Climbing Atlanta Center
02:29PM 33.9069 -83.0250 66° East 348 400 26,500 1,320 Climbing Atlanta Center
02:30PM 33.9539 -82.9119 63° Northeast 363 418 28,000 1,500 Climbing Atlanta Center
02:31PM 34.0031 -82.7958 63° Northeast 368 423 29,500 1,500 Climbing Atlanta Center
02:32PM 34.0497 -82.6825 64° Northeast 368 423 31,000 1,500 Climbing Atlanta Center
02:33PM 34.0900 -82.5614 68° East 374 430 32,500 1,440 Climbing Atlanta Center
02:34PM 34.1367 -82.4478 64° Northeast 379 436 33,900 1,380 Climbing Atlanta Center
02:35PM 34.1831 -82.3314 64° Northeast 379 436 35,300 1,440 Climbing Atlanta Center
02:36PM 34.2294 -82.2122 65° Northeast 379 436 36,800 1,500 Climbing Atlanta Center
02:37PM 34.2797 -82.1006 61° Northeast 379 436 38,300 1,260 Climbing Atlanta Center
02:38PM 34.3344 -81.9911 59° Northeast 379 436 39,400 1,020 Climbing Atlanta Center
02:39PM 34.3889 -81.8817 59° Northeast 379 436 40,400 780 Climbing Atlanta Center
02:40PM 34.4472 -81.7667 58° Northeast 385 443 41,000 300 Climbing Atlanta Center
02:41PM 34.5056 -81.6492 59° Northeast 390 449 41,000  Level Atlanta Center
02:42PM 34.5658 -81.5239 60° Northeast 411 473 41,000  Level Atlanta Center
02:43PM 34.6319 -81.3958 58° Northeast 423 487 41,000  Level Atlanta Center
02:44PM 34.6997 -81.2544 60° Northeast 441 507 41,000  Level Atlanta Center
02:45PM 34.7656 -81.1208 59° Northeast 462 532 41,000  Level Atlanta Center
02:46PM 34.8308 -80.9794 61° Northeast 457 526 41,000  Level Atlanta Center
02:47PM 34.8944 -80.8531 58° Northeast 455 524 41,000  Level Atlanta Center
02:48PM 34.9597 -80.7161 60° Northeast 455 524 41,000  Level Atlanta Center
02:49PM 35.0228 -80.5844 60° Northeast 455 524 41,000  Level Atlanta Center
02:51PM 35.1211 -80.3811 59° Northeast 460 529 41,000  Level Washington Center
02:53PM 35.2483 -80.1142 60° Northeast 460 529 41,000  Level Washington Center
02:54PM 35.3117 -79.9878 58° Northeast 449 517 41,000  Level Washington Center
02:55PM 35.3750 -79.8511 60° Northeast 449 517 41,000  Level Washington Center
02:56PM 35.4400 -79.7194 59° Northeast 449 517 41,000  Level Washington Center
02:57PM 35.5008 -79.5875 60° Northeast 449 517 41,000  Level Washington Center
02:58PM 35.5639 -79.4528 60° Northeast 449 517 41,000  Level Washington Center
02:59PM 35.6242 -79.3253 60° Northeast 449 517 41,000  Level Washington Center
03:00PM 35.6844 -79.1953 60° Northeast 443 510 41,000  Level Washington Center
03:01PM 35.7447 -79.0647 60° Northeast 437 503 41,000  Level Washington Center
03:02PM 35.8047 -78.9369 60° Northeast 432 497 41,000  Level Washington Center
03:03PM 35.8647 -78.8036 61° Northeast 432 497 41,000  Level Washington Center
03:04PM 35.8875 -78.6558 79° East 427 491 41,000  Level Washington Center
03:05PM 35.9036 -78.5025 83° East 432 497 41,000  Level Washington Center
03:06PM 35.9178 -78.3492 83° East 438 504 41,000  Level Washington Center
03:07PM 35.9522 -78.2042 74° East 443 510 41,000  Level Washington Center
03:08PM 36.0006 -78.1003 60° Northeast 432 497 41,000  Level Washington Center
03:09PM 36.0700 -77.9586 59° Northeast 432 497 41,000  Level Washington Center
03:10PM 36.1311 -77.8267 60° Northeast 432 497 41,000  Level Washington Center
03:11PM 36.1961 -77.6947 59° Northeast 437 503 41,000  Level Washington Center
03:12PM 36.2589 -77.5625 59° Northeast 437 503 41,000  Level Washington Center
03:13PM 36.3236 -77.4172 61° Northeast 437 503 41,000  Level Washington Center
03:14PM 36.3881 -77.2872 58° Northeast 437 503 41,000  Level Washington Center
03:15PM 36.4419 -77.1644 61° Northeast 443 510 41,000  Level Washington Center
03:16PM 36.5061 -77.0339 59° Northeast 438 504 41,000  Level Washington Center
03:17PM 36.5661 -76.8981 61° Northeast 443 510 41,000  Level Washington Center
03:18PM 36.6386 -76.7517 58° Northeast 443 510 41,000  Level Washington Center
03:19PM 36.6958 -76.6539 54° Northeast 443 510 41,000 -60 Level Washington Center
03:20PM 36.8031 -76.5569 36° Northeast 427 491 40,900  Descending Washington Center
03:21PM 36.9039 -76.4725 34° Northeast 427 491 41,000  Climbing Washington Center
03:22PM 37.0025 -76.3878 34° Northeast 427 491 41,000  Level Washington Center
03:23PM 37.1031 -76.3003 35° Northeast 427 491 41,000  Level Washington Center
03:24PM 37.1997 -76.2150 35° Northeast 427 491 41,000  Level Washington Center
03:25PM 37.3128 -76.1244 32° Northeast 427 491 41,000  Level Washington Center
03:26PM 37.4111 -76.0389 35° Northeast 432 497 41,000  Level Washington Center
03:27PM 37.5094 -75.9531 35° Northeast 432 497 41,000  Level Washington Center
03:28PM 37.6078 -75.8644 36° Northeast 427 491 41,000  Level Washington Center
03:29PM 37.7081 -75.7808 33° Northeast 427 491 41,000  Level Washington Center
03:30PM 37.8039 -75.6942 36° Northeast 427 491 41,000  Level Washington Center
03:31PM 37.9019 -75.6050 36° Northeast 427 491 41,000  Level Washington Center
03:32PM 38.0022 -75.5233 33° Northeast 432 497 41,000  Level Washington Center
03:33PM 38.1022 -75.4414 33° Northeast 427 491 41,000  Level Washington Center
03:34PM 38.2083 -75.3725 27° Northeast 421 484 41,000  Level Washington Center
03:35PM 38.2936 -75.3244 24° Northeast 416 479 41,000  Level Washington Center
03:36PM 38.4144 -75.2392 29° Northeast 416 479 41,000  Level Washington Center
03:37PM 38.5228 -75.1725 26° Northeast 416 479 41,000  Level Washington Center
03:38PM 38.6267 -75.1028 28° Northeast 416 479 41,000  Level Washington Center
03:39PM 38.7306 -75.0381 26° Northeast 416 479 41,000 -660 Level Washington Center
03:40PM 38.8325 -74.9708 27° Northeast 406 467 39,700 -1,920 Descending Washington Center
03:41PM 38.9322 -74.9058 27° Northeast 401 461 37,200 -2,280 Descending Washington Center
03:42PM 39.0275 -74.8461 26° Northeast 396 456 35,200 -2,040 Descending Washington Center
03:43PM 39.1208 -74.7756 30° Northeast 385 443 33,100 -2,040 Descending Washington Center
03:44PM 39.2119 -74.6836 38° Northeast 398 458 31,200 -1,980 Descending Washington Center
03:45PM 39.3031 -74.5883 39° Northeast 412 474 29,200 -1,980 Descending Washington Center
03:46PM 39.3875 -74.4986 39° Northeast 426 490 27,300 -1,920 Descending Washington Center
03:47PM 39.4564 -74.4303 37° Northeast 426 490 26,100 -1,680 Descending New York Center
03:48PM 39.5364 -74.3428 40° Northeast 410 472 24,600 -1,080 Descending New York Center
03:49PM 39.6244 -74.2531 38° Northeast 405 466 24,000 -360 Descending New York Center
03:50PM 39.7086 -74.1600 40° Northeast 405 466 24,000 -360 Level New York Center
03:51PM 39.7944 -74.0697 39° Northeast 400 460 23,300 -1,320 Descending New York Center
03:53PM 39.9717 -73.8803 39° Northeast 378 435 20,000 -1,560 Descending Boston Center
03:54PM 40.0478 -73.7953 41° Northeast 373 429 18,500 -1,320 Descending Boston Center
03:55PM 40.1258 -73.7128 39° Northeast 363 418 17,400 -780 Descending Boston Center
03:56PM 40.2039 -73.6356 37° Northeast 358 412 17,000 -240 Descending Boston Center
03:57PM 40.2628 -73.5742 38° Northeast 353 406 17,000  Level Boston Center
03:58PM 40.3492 -73.4775 40° Northeast 348 400 17,000  Level Boston Center
03:59PM 40.4372 -73.4353 20° North 337 388 17,000  Level Boston Center
04:00PM 40.5292 -73.4011 16° North 337 388 17,000 -480 Level Boston Center
04:01PM 40.6231 -73.3697 14° North 331 381 16,100 -900 Descending Boston Center
04:02PM 40.7150 -73.3353 16° North 341 392 15,200 -600 Descending Boston Center
04:03PM 40.8000 -73.2833 25° Northeast 310 357 15,000 -1,200 Descending New York TRACON
04:04PM 40.8333 -73.2000 62° Northeast 312 359 13,100 -2,160 Descending New York TRACON
04:05PM 40.8833 -73.1167 52° Northeast 318 366 10,900 -2,460 Descending New York TRACON
04:06PM 40.9667 -73.1167 360° North 266 306 8,000 -2,580 Descending New York TRACON
04:07PM 41.0333 -73.1167 360° North 271 312 5,800 -2,100 Descending New York TRACON
04:08PM 41.0667 -73.2000 298° West 266 306 4,100 -900 Descending New York TRACON
04:09PM 41.0833 -73.3000 282° West 267 307 4,100 -360 Level New York TRACON
04:10PM 41.0833 -73.4000 270° West 268 308 3,400 -960 Descending New York TRACON
04:11PM 41.1000 -73.5000 283° West 257 296 2,100 -660 Descending New York TRACON
04:12PM 41.1167 -73.6000 283° West 259 298 2,100  Level New York TRACON
04:13PM 41.1333 -73.6667 288° West 215 247 2,100  Level New York TRACON